createdAt,value
2023-02-11T00:00:24.872Z,62.16
2023-02-11T00:02:52.175Z,62.44
2023-02-11T00:05:19.811Z,60.67
2023-02-11T00:07:47.220Z,60.56
2023-02-11T00:10:14.514Z,60.55
2023-02-11T00:12:43.278Z,60.46
2023-02-11T00:15:10.579Z,60.49
2023-02-11T00:17:37.975Z,61.08
2023-02-11T00:20:08.182Z,61.72
2023-02-11T00:22:35.820Z,61.92
2023-02-11T00:25:03.076Z,61.73
2023-02-11T00:27:30.658Z,61.55
2023-02-11T00:29:57.947Z,61.25
2023-02-11T00:32:25.415Z,61.25
2023-02-11T00:34:53.284Z,60.17
2023-02-11T00:37:20.849Z,60.22
2023-02-11T00:39:48.355Z,60.44
2023-02-11T00:42:15.653Z,60.82
2023-02-11T00:44:44.608Z,61.14
2023-02-11T00:47:11.997Z,61.16
2023-02-11T00:49:40.559Z,61.61
2023-02-11T00:52:07.837Z,61.29
2023-02-11T00:54:35.132Z,61.51
2023-02-11T00:57:02.587Z,62.08
2023-02-11T00:59:30.047Z,62.84
2023-02-11T01:01:57.316Z,62.12
2023-02-11T01:04:24.607Z,62.86
2023-02-11T01:06:52.770Z,63.52
2023-02-11T01:09:21.253Z,63.61
2023-02-11T01:11:48.561Z,63.17
2023-02-11T01:14:16.042Z,63.44
2023-02-11T01:16:43.559Z,63.53
2023-02-11T01:19:10.882Z,63.88
2023-02-11T01:21:38.757Z,63.88
2023-02-11T01:24:06.351Z,64.19
2023-02-11T01:26:33.862Z,63.19
2023-02-11T01:29:01.343Z,63.71
2023-02-11T01:31:28.717Z,63.57
2023-02-11T01:33:56.046Z,64.22
2023-02-11T01:36:23.420Z,64.19
2023-02-11T01:38:50.785Z,64.62
2023-02-11T01:41:20.717Z,64.95
2023-02-11T01:43:49.299Z,64.68
2023-02-11T01:46:36.560Z,65.01
2023-02-11T01:49:07.430Z,65.55
2023-02-11T01:52:04.102Z,65.73
2023-02-11T01:54:55.362Z,65.54
2023-02-11T01:57:25.256Z,65.77
2023-02-11T02:00:25.145Z,65.30
2023-02-11T02:03:13.188Z,64.96
2023-02-11T02:05:47.799Z,64.99
2023-02-11T02:08:25.747Z,65.22
2023-02-11T02:10:56.810Z,65.61
2023-02-11T02:13:24.295Z,65.62
2023-02-11T02:16:00.826Z,64.62
2023-02-11T02:18:52.620Z,64.75
2023-02-11T02:21:20.150Z,65.32
2023-02-11T02:23:56.273Z,65.58
2023-02-11T02:26:37.246Z,65.63
2023-02-11T02:29:22.585Z,66.58
2023-02-11T02:32:11.730Z,66.58
2023-02-11T02:35:05.762Z,67.23
2023-02-11T02:37:43.530Z,66.88
2023-02-11T02:40:29.939Z,67.60
2023-02-11T02:42:57.352Z,68.16
2023-02-11T02:45:24.584Z,68.63
2023-02-11T02:47:51.978Z,68.39
2023-02-11T02:50:25.069Z,67.58
2023-02-11T02:53:14.024Z,67.11
2023-02-11T02:55:51.853Z,67.09
2023-02-11T02:58:24.101Z,67.50
2023-02-11T03:00:57.536Z,67.67
2023-02-11T03:03:43.431Z,68.05
2023-02-11T03:06:18.153Z,67.79
2023-02-11T03:09:06.270Z,67.47
2023-02-11T03:11:33.632Z,66.64
2023-02-11T03:14:01.262Z,66.56
2023-02-11T03:16:28.794Z,66.54
2023-02-11T03:19:02.155Z,66.79
2023-02-11T03:21:30.937Z,67.01
2023-02-11T03:24:00.534Z,67.50
2023-02-11T03:26:37.207Z,67.74
2023-02-11T03:29:14.523Z,67.42
2023-02-11T03:32:19.471Z,67.12
2023-02-11T03:35:06.666Z,67.33
2023-02-11T03:37:40.977Z,67.25
2023-02-11T03:40:09.277Z,67.76
2023-02-11T03:42:40.335Z,67.81
2023-02-11T03:45:12.645Z,67.26
2023-02-11T03:47:41.704Z,67.42
2023-02-11T03:50:10.180Z,67.17
2023-02-11T03:52:37.489Z,68.38
2023-02-11T03:55:11.619Z,68.94
2023-02-11T03:57:39.031Z,69.52
2023-02-11T04:00:06.848Z,70.04
2023-02-11T04:02:38.765Z,71.09
2023-02-11T04:05:09.578Z,70.45
2023-02-11T04:07:36.902Z,70.46
2023-02-11T04:10:04.696Z,69.95
2023-02-11T04:12:32.131Z,69.28
2023-02-11T04:14:59.366Z,67.93
2023-02-11T04:17:26.634Z,67.66
2023-02-11T04:19:53.880Z,67.89
2023-02-11T04:22:21.254Z,67.98
2023-02-11T04:24:48.528Z,68.00
2023-02-11T04:27:15.896Z,67.59
2023-02-11T04:29:43.196Z,67.64
2023-02-11T04:32:11.516Z,67.69
2023-02-11T04:34:38.913Z,68.29
2023-02-11T04:37:06.305Z,68.55
2023-02-11T04:39:33.589Z,69.02
2023-02-11T04:42:00.984Z,69.16
2023-02-11T04:44:28.313Z,69.07
2023-02-11T04:46:55.633Z,69.55
2023-02-11T04:49:22.921Z,70.11
2023-02-11T04:51:50.341Z,69.97
2023-02-11T04:54:17.805Z,69.98
2023-02-11T04:56:45.148Z,69.68
2023-02-11T04:59:13.446Z,69.56
2023-02-11T05:01:41.004Z,69.33
2023-02-11T05:04:08.338Z,69.73
2023-02-11T05:06:35.739Z,69.56
2023-02-11T05:09:03.073Z,69.32
2023-02-11T05:11:30.462Z,69.90
2023-02-11T05:13:57.818Z,70.29
2023-02-11T05:16:25.273Z,69.56
2023-02-11T05:18:53.823Z,69.38
2023-02-11T05:21:21.260Z,69.29
2023-02-11T05:23:48.567Z,69.31
2023-02-11T05:26:16.049Z,69.29
2023-02-11T05:28:43.378Z,69.43
2023-02-11T05:31:11.225Z,69.73
2023-02-11T05:33:38.610Z,69.50
2023-02-11T05:36:08.456Z,69.84
2023-02-11T05:38:36.128Z,69.93
2023-02-11T05:41:03.859Z,69.57
2023-02-11T05:43:31.303Z,68.96
2023-02-11T05:45:58.620Z,68.80
2023-02-11T05:48:26.007Z,69.35
2023-02-11T05:50:53.297Z,68.82
2023-02-11T05:53:20.582Z,68.91
2023-02-11T05:55:47.970Z,69.53
2023-02-11T05:58:15.542Z,69.53
2023-02-11T06:00:42.834Z,69.72
2023-02-11T06:03:10.173Z,70.45
2023-02-11T06:05:37.450Z,71.42
2023-02-11T06:08:05.190Z,71.86
2023-02-11T06:10:32.447Z,71.82
2023-02-11T06:12:59.752Z,71.18
2023-02-11T06:15:26.993Z,69.94
2023-02-11T06:17:54.332Z,70.26
2023-02-11T06:20:21.660Z,70.87
2023-02-11T06:22:49.025Z,71.58
2023-02-11T06:25:16.317Z,70.97
2023-02-11T06:27:43.732Z,71.10
2023-02-11T06:30:11.409Z,71.48
2023-02-11T06:32:44.335Z,71.12
2023-02-11T06:35:13.112Z,70.65
2023-02-11T06:37:42.022Z,70.96
2023-02-11T06:40:10.439Z,70.40
2023-02-11T06:42:39.425Z,68.26
2023-02-11T06:45:09.533Z,67.29
2023-02-11T06:47:37.518Z,66.52
2023-02-11T06:50:05.973Z,66.04
2023-02-11T06:52:33.900Z,65.42
2023-02-11T06:55:01.270Z,65.53
2023-02-11T06:57:28.643Z,65.26
2023-02-11T06:59:56.018Z,65.30
2023-02-11T07:02:23.410Z,64.87
2023-02-11T07:04:50.686Z,65.04
2023-02-11T07:07:18.122Z,65.52
2023-02-11T07:09:45.420Z,65.93
2023-02-11T07:12:12.751Z,65.66
2023-02-11T07:14:40.481Z,65.75
2023-02-11T07:17:07.801Z,65.84
2023-02-11T07:19:35.089Z,66.57
2023-02-11T07:22:02.456Z,66.98
2023-02-11T07:24:29.794Z,67.24
2023-02-11T07:26:57.164Z,67.37
2023-02-11T07:29:24.422Z,66.65
2023-02-11T07:31:51.785Z,66.66
2023-02-11T07:34:19.099Z,66.79
2023-02-11T07:36:46.572Z,66.43
2023-02-11T07:39:13.835Z,66.43
2023-02-11T07:41:41.181Z,66.34
2023-02-11T07:44:08.684Z,65.51
2023-02-11T07:46:36.126Z,66.11
2023-02-11T07:49:03.739Z,66.25
2023-02-11T07:51:31.267Z,66.86
2023-02-11T07:53:59.659Z,65.79
2023-02-11T07:56:27.542Z,65.05
2023-02-11T07:58:55.043Z,66.03
2023-02-11T08:01:28.430Z,65.22
2023-02-11T08:03:57.543Z,60.31
2023-02-11T08:06:26.232Z,56.43
2023-02-11T08:08:53.604Z,55.89
2023-02-11T08:11:28.283Z,57.07
2023-02-11T08:13:56.042Z,59.29
2023-02-11T08:16:28.166Z,61.56
2023-02-11T08:18:59.835Z,62.40
2023-02-11T08:21:27.353Z,63.15
2023-02-11T08:23:54.918Z,63.13
2023-02-11T08:26:24.715Z,62.33
2023-02-11T08:28:52.892Z,62.09
2023-02-11T08:31:22.297Z,61.85
2023-02-11T08:33:49.811Z,61.60
2023-02-11T08:36:19.059Z,61.30
2023-02-11T08:38:46.297Z,61.48
2023-02-11T08:41:15.069Z,61.99
2023-02-11T08:43:42.642Z,61.83
2023-02-11T08:46:14.144Z,61.78
2023-02-11T08:48:41.693Z,62.13
2023-02-11T08:51:10.247Z,61.82
2023-02-11T08:53:37.765Z,60.89
2023-02-11T08:56:05.461Z,60.02
2023-02-11T08:58:33.068Z,59.15
2023-02-11T09:01:00.419Z,57.73
2023-02-11T09:03:27.871Z,57.04
2023-02-11T09:05:55.233Z,56.86
2023-02-11T09:08:22.674Z,57.19
2023-02-11T09:10:50.358Z,57.65
2023-02-11T09:13:18.038Z,57.90
2023-02-11T09:15:46.506Z,56.96
2023-02-11T09:18:14.152Z,56.46
2023-02-11T09:20:41.560Z,55.66
2023-02-11T09:23:09.761Z,55.30
2023-02-11T09:25:40.386Z,55.34
2023-02-11T09:28:08.538Z,55.83
2023-02-11T09:30:39.075Z,55.65
2023-02-11T09:33:06.550Z,54.92
2023-02-11T09:35:34.680Z,54.53
2023-02-11T09:38:02.012Z,53.30
2023-02-11T09:40:29.315Z,53.24
2023-02-11T09:43:09.142Z,52.26
2023-02-11T09:45:36.685Z,52.52
2023-02-11T09:48:18.510Z,51.38
2023-02-11T09:50:57.433Z,51.32
2023-02-11T09:53:26.275Z,50.63
2023-02-11T09:55:59.699Z,52.10
2023-02-11T09:58:29.013Z,52.05
2023-02-11T10:01:11.564Z,51.71
2023-02-11T10:03:59.351Z,50.68
2023-02-11T10:06:45.842Z,50.25
2023-02-11T10:09:19.301Z,50.80
2023-02-11T10:12:03.212Z,50.44
2023-02-11T10:14:55.649Z,50.63
2023-02-11T10:17:53.840Z,50.35
2023-02-11T10:20:26.679Z,49.80
2023-02-11T10:22:55.326Z,49.57
2023-02-11T10:25:28.869Z,49.50
2023-02-11T10:27:58.212Z,49.17
2023-02-11T10:30:29.478Z,48.74
2023-02-11T10:33:12.097Z,47.78
2023-02-11T10:35:39.416Z,47.23
2023-02-11T10:38:07.811Z,47.02
2023-02-11T10:40:35.161Z,46.35
2023-02-11T10:43:05.081Z,46.78
2023-02-11T10:45:34.321Z,47.24
2023-02-11T10:48:02.271Z,45.61
2023-02-11T10:50:32.709Z,44.49
2023-02-11T10:53:12.237Z,44.90
2023-02-11T10:55:39.731Z,45.08
2023-02-11T10:58:07.018Z,45.55
2023-02-11T11:00:38.172Z,46.37
2023-02-11T11:03:22.282Z,46.79
2023-02-11T11:05:51.249Z,45.69
2023-02-11T11:08:21.526Z,45.67
2023-02-11T11:11:03.854Z,45.41
2023-02-11T11:13:36.016Z,44.52
2023-02-11T11:16:12.260Z,44.82
2023-02-11T11:18:46.253Z,45.04
2023-02-11T11:21:27.343Z,45.50
2023-02-11T11:23:59.492Z,45.66
2023-02-11T11:26:51.059Z,45.62
2023-02-11T11:29:31.420Z,44.29
2023-02-11T11:32:04.935Z,44.18
2023-02-11T11:34:33.227Z,44.18
2023-02-11T11:37:02.500Z,43.86
2023-02-11T11:39:31.413Z,43.71
2023-02-11T11:42:03.342Z,43.68
2023-02-11T11:44:37.532Z,42.99
2023-02-11T11:47:25.600Z,43.50
2023-02-11T11:50:27.843Z,44.24
2023-02-11T11:53:04.612Z,44.09
2023-02-11T11:55:51.719Z,43.83
2023-02-11T11:58:22.789Z,43.80
2023-02-11T12:01:02.129Z,43.75
2023-02-11T12:03:33.326Z,43.37
2023-02-11T12:06:09.364Z,43.04
2023-02-11T12:08:36.641Z,43.26
2023-02-11T12:11:08.096Z,42.92
2023-02-11T12:14:03.390Z,42.25
2023-02-11T12:16:45.472Z,42.22
2023-02-11T12:19:34.791Z,41.28
2023-02-11T12:22:10.613Z,40.18
2023-02-11T12:25:00.403Z,40.29
2023-02-11T12:27:30.718Z,41.13
2023-02-11T12:30:27.073Z,40.51
2023-02-11T12:33:33.039Z,40.13
2023-02-11T12:36:41.899Z,41.16
2023-02-11T12:39:36.581Z,41.20
2023-02-11T12:42:25.458Z,40.67
2023-02-11T12:45:11.023Z,40.71
2023-02-11T12:47:45.908Z,39.84
2023-02-11T12:50:53.646Z,40.73
2023-02-11T12:53:36.154Z,40.01
2023-02-11T12:56:19.999Z,39.97
2023-02-11T12:58:48.004Z,39.57
2023-02-11T13:01:19.570Z,38.74
2023-02-11T13:04:11.773Z,39.54
2023-02-11T13:06:41.956Z,39.95
2023-02-11T13:09:19.010Z,39.09
2023-02-11T13:11:52.148Z,38.93
2023-02-11T13:14:29.240Z,38.19
2023-02-11T13:16:58.591Z,38.18
2023-02-11T13:19:57.120Z,38.50
2023-02-11T13:22:59.408Z,36.57
2023-02-11T13:25:31.578Z,36.35
2023-02-11T13:28:14.533Z,36.13
2023-02-11T13:30:47.292Z,36.06
2023-02-11T13:33:20.107Z,35.46
2023-02-11T13:36:11.881Z,36.03
2023-02-11T13:38:39.380Z,36.08
2023-02-11T13:41:06.933Z,35.93
2023-02-11T13:43:35.444Z,36.97
2023-02-11T13:46:04.732Z,36.47
2023-02-11T13:48:34.909Z,37.23
2023-02-11T13:51:04.625Z,37.21
2023-02-11T13:53:54.754Z,37.12
2023-02-11T13:56:31.103Z,37.47
2023-02-11T13:59:01.905Z,37.93
2023-02-11T14:02:06.602Z,38.39
2023-02-11T14:04:52.771Z,38.31
2023-02-11T14:07:45.551Z,38.43
2023-02-11T14:10:43.833Z,38.00
2023-02-11T14:13:23.573Z,38.12
2023-02-11T14:16:20.378Z,38.31
2023-02-11T14:18:55.859Z,37.80
2023-02-11T14:21:30.434Z,37.78
2023-02-11T14:24:07.198Z,37.67
2023-02-11T14:26:57.921Z,38.05
2023-02-11T14:29:37.376Z,37.94
2023-02-11T14:32:29.675Z,37.95
2023-02-11T14:35:10.810Z,37.99
2023-02-11T14:37:50.886Z,37.98
2023-02-11T14:40:30.768Z,38.29
2023-02-11T14:42:58.876Z,38.08
2023-02-11T14:45:27.678Z,37.79
2023-02-11T14:48:05.724Z,38.09
2023-02-11T14:50:45.522Z,38.30
2023-02-11T14:53:15.824Z,39.41
2023-02-11T14:55:43.659Z,39.98
2023-02-11T14:58:18.321Z,40.16
2023-02-11T15:00:50.060Z,39.96
2023-02-11T15:03:39.823Z,40.35
2023-02-11T15:06:18.466Z,40.74
2023-02-11T15:08:58.373Z,41.87
2023-02-11T15:11:26.066Z,43.14
2023-02-11T15:13:55.510Z,44.54
2023-02-11T15:16:24.004Z,45.09
2023-02-11T15:18:56.215Z,45.69
2023-02-11T15:21:28.758Z,46.35
2023-02-11T15:24:03.536Z,46.22
2023-02-11T15:26:31.030Z,46.37
2023-02-11T15:28:58.303Z,46.53
2023-02-11T15:31:26.793Z,46.53
2023-02-11T15:33:54.420Z,46.65
2023-02-11T15:36:28.377Z,46.02
2023-02-11T15:39:18.567Z,46.07
2023-02-11T15:41:46.030Z,45.80
2023-02-11T15:44:30.456Z,45.58
2023-02-11T15:46:57.899Z,45.59
2023-02-11T15:49:25.772Z,45.68
2023-02-11T15:51:54.105Z,45.37
2023-02-11T15:54:24.139Z,44.38
2023-02-11T15:56:52.092Z,44.97
2023-02-11T15:59:30.705Z,45.18
2023-02-11T16:01:58.734Z,45.48
2023-02-11T16:04:26.798Z,45.32
2023-02-11T16:06:54.817Z,45.98
2023-02-11T16:09:33.372Z,46.02
2023-02-11T16:12:07.637Z,45.72
2023-02-11T16:14:39.488Z,45.88
2023-02-11T16:17:12.553Z,45.59
2023-02-11T16:19:44.423Z,45.32
2023-02-11T16:22:15.117Z,45.99
2023-02-11T16:24:42.431Z,46.51
2023-02-11T16:27:18.802Z,46.13
2023-02-11T16:29:47.840Z,46.42
2023-02-11T16:32:19.181Z,46.73
2023-02-11T16:34:47.931Z,47.01
2023-02-11T16:37:15.288Z,46.94
2023-02-11T16:39:42.587Z,46.77
2023-02-11T16:42:11.347Z,45.86
2023-02-11T16:44:38.782Z,45.31
2023-02-11T16:47:08.178Z,45.31
2023-02-11T16:49:41.155Z,45.78
2023-02-11T16:52:14.527Z,45.85
2023-02-11T16:54:41.952Z,45.53
2023-02-11T16:57:16.048Z,46.13
2023-02-11T16:59:43.789Z,46.10
2023-02-11T17:02:23.628Z,45.66
2023-02-11T17:04:53.494Z,46.63
2023-02-11T17:07:20.957Z,48.11
2023-02-11T17:09:48.320Z,47.32
2023-02-11T17:12:15.684Z,47.73
2023-02-11T17:14:42.954Z,48.49
2023-02-11T17:17:10.958Z,47.95
2023-02-11T17:19:38.327Z,47.66
2023-02-11T17:22:05.914Z,47.69
2023-02-11T17:24:33.215Z,48.03
2023-02-11T17:27:00.609Z,48.52
2023-02-11T17:29:27.945Z,48.61
2023-02-11T17:31:55.572Z,48.54
2023-02-11T17:34:23.172Z,48.68
2023-02-11T17:36:50.716Z,48.63
2023-02-11T17:39:19.364Z,48.46
2023-02-11T17:41:46.735Z,48.55
2023-02-11T17:44:15.631Z,48.44
2023-02-11T17:46:43.267Z,48.83
2023-02-11T17:49:11.825Z,47.80
2023-02-11T17:51:39.487Z,49.07
2023-02-11T17:54:14.744Z,49.39
2023-02-11T17:56:42.274Z,49.43
2023-02-11T17:59:09.983Z,49.49
2023-02-11T18:01:37.868Z,49.06
2023-02-11T18:04:05.879Z,49.30
2023-02-11T18:06:36.362Z,49.95
2023-02-11T18:09:04.558Z,49.87
2023-02-11T18:11:32.787Z,50.19
2023-02-11T18:14:01.234Z,51.06
2023-02-11T18:16:30.084Z,50.68
2023-02-11T18:18:58.163Z,50.18
2023-02-11T18:21:25.794Z,50.58
2023-02-11T18:23:53.361Z,50.40
2023-02-11T18:26:21.917Z,50.73
2023-02-11T18:28:49.404Z,50.88
2023-02-11T18:31:17.336Z,51.31
2023-02-11T18:33:44.997Z,51.04
2023-02-11T18:36:13.917Z,50.65
2023-02-11T18:38:41.507Z,50.44
2023-02-11T18:41:09.012Z,51.06
2023-02-11T18:43:36.658Z,51.12
2023-02-11T18:46:07.980Z,51.49
2023-02-11T18:48:35.544Z,51.74
2023-02-11T18:51:02.877Z,51.50
2023-02-11T18:53:30.264Z,51.05
2023-02-11T18:55:57.577Z,51.12
2023-02-11T18:58:24.988Z,50.07
2023-02-11T19:00:52.251Z,49.89
2023-02-11T19:03:19.624Z,50.63
2023-02-11T19:05:48.162Z,49.29
2023-02-11T19:08:15.786Z,49.84
2023-02-11T19:10:44.325Z,49.68
2023-02-11T19:13:14.660Z,48.73
2023-02-11T19:15:46.183Z,50.62
2023-02-11T19:18:14.391Z,51.35
2023-02-11T19:20:42.833Z,51.36
2023-02-11T19:23:10.468Z,51.68
2023-02-11T19:25:38.045Z,51.68
2023-02-11T19:28:05.524Z,51.65
2023-02-11T19:30:33.025Z,52.38
2023-02-11T19:33:00.468Z,52.31
2023-02-11T19:35:27.782Z,51.53
2023-02-11T19:37:55.176Z,51.78
2023-02-11T19:40:22.919Z,51.51
2023-02-11T19:42:50.563Z,50.92
2023-02-11T19:45:18.227Z,51.62
2023-02-11T19:47:45.549Z,51.24
2023-02-11T19:50:12.976Z,51.90
2023-02-11T19:52:40.905Z,51.74
2023-02-11T19:55:08.475Z,52.33
2023-02-11T19:57:36.678Z,53.32
2023-02-11T20:00:04.562Z,53.15
2023-02-11T20:02:40.118Z,53.57
2023-02-11T20:05:07.845Z,53.66
2023-02-11T20:07:35.422Z,53.40
2023-02-11T20:10:02.820Z,52.79
2023-02-11T20:12:30.126Z,52.17
2023-02-11T20:14:57.701Z,51.67
2023-02-11T20:17:25.133Z,52.39
2023-02-11T20:19:52.829Z,52.80
2023-02-11T20:22:20.228Z,53.59
2023-02-11T20:24:47.574Z,53.35
2023-02-11T20:27:14.887Z,53.53
2023-02-11T20:29:42.316Z,52.99
2023-02-11T20:32:10.963Z,53.29
2023-02-11T20:34:38.371Z,53.70
2023-02-11T20:37:06.874Z,54.05
2023-02-11T20:39:35.681Z,54.00
2023-02-11T20:42:03.049Z,54.59
2023-02-11T20:44:30.376Z,54.59
2023-02-11T20:46:57.700Z,54.76
2023-02-11T20:49:25.212Z,54.83
2023-02-11T20:51:53.976Z,54.03
2023-02-11T20:54:21.904Z,53.64
2023-02-11T20:56:51.278Z,53.54
2023-02-11T20:59:18.985Z,53.78
2023-02-11T21:01:48.780Z,53.84
2023-02-11T21:04:18.590Z,53.61
2023-02-11T21:06:50.785Z,52.66
2023-02-11T21:09:20.021Z,52.80
2023-02-11T21:11:47.671Z,52.83
2023-02-11T21:14:15.409Z,53.22
2023-02-11T21:16:42.772Z,53.73
2023-02-11T21:19:10.197Z,54.04
2023-02-11T21:21:37.648Z,53.92
2023-02-11T21:24:05.822Z,53.89
2023-02-11T21:26:33.595Z,54.38
2023-02-11T21:29:01.804Z,54.48
2023-02-11T21:31:30.122Z,54.80
2023-02-11T21:33:59.545Z,55.28
2023-02-11T21:36:27.743Z,55.41
2023-02-11T21:38:55.238Z,54.59
2023-02-11T21:41:22.646Z,55.02
2023-02-11T21:43:50.628Z,55.15
2023-02-11T21:46:18.406Z,55.91
2023-02-11T21:48:45.905Z,56.00
2023-02-11T21:51:18.001Z,55.86
2023-02-11T21:53:45.596Z,55.81
2023-02-11T21:56:17.247Z,55.35
2023-02-11T21:58:45.402Z,55.36
2023-02-11T22:01:19.009Z,55.36
2023-02-11T22:03:46.607Z,54.58
2023-02-11T22:06:15.834Z,55.50
2023-02-11T22:08:43.292Z,55.40
2023-02-11T22:11:12.347Z,55.92
2023-02-11T22:13:40.163Z,56.13
2023-02-11T22:16:09.437Z,55.94
2023-02-11T22:18:37.128Z,55.31
2023-02-11T22:21:10.325Z,55.17
2023-02-11T22:23:37.822Z,54.37
2023-02-11T22:26:07.120Z,54.55
2023-02-11T22:28:35.544Z,55.00
2023-02-11T22:31:02.940Z,55.13
2023-02-11T22:33:30.407Z,54.90
2023-02-11T22:36:01.891Z,55.68
2023-02-11T22:38:29.766Z,55.83
2023-02-11T22:40:58.478Z,56.47
2023-02-11T22:43:25.977Z,55.96
2023-02-11T22:45:56.413Z,56.77
2023-02-11T22:48:24.092Z,57.25
2023-02-11T22:50:51.367Z,59.14
2023-02-11T22:53:18.815Z,59.02
2023-02-11T22:55:46.105Z,60.45
2023-02-11T22:58:13.421Z,60.93
2023-02-11T23:00:41.139Z,61.16
2023-02-11T23:03:08.828Z,61.27
2023-02-11T23:05:40.020Z,61.00
2023-02-11T23:08:10.932Z,60.97
2023-02-11T23:10:38.716Z,60.92
2023-02-11T23:13:06.522Z,61.09
2023-02-11T23:15:34.014Z,61.39
2023-02-11T23:18:01.316Z,61.30
2023-02-11T23:20:28.707Z,61.56
2023-02-11T23:22:56.020Z,62.15
2023-02-11T23:25:23.370Z,62.50
2023-02-11T23:27:50.589Z,62.97
2023-02-11T23:30:18.495Z,62.91
2023-02-11T23:32:46.220Z,62.83
2023-02-11T23:35:22.003Z,63.00
2023-02-11T23:37:49.655Z,63.13
2023-02-11T23:40:17.489Z,62.93
2023-02-11T23:42:45.700Z,63.01
2023-02-11T23:45:13.061Z,62.93
2023-02-11T23:47:41.711Z,62.70
2023-02-11T23:50:09.986Z,62.40
2023-02-11T23:52:37.306Z,62.44
2023-02-11T23:55:05.002Z,62.37
2023-02-11T23:57:33.336Z,62.36
